Time;durP1;ratioP1;P1;durP2;ratioP2;P2;SDS_P1;SDS_P2;PMS_P1;PMS_P2;Temp;Humidity;BMP_temperature;BMP_pressure;BME280_temperature;BME280_humidity;BME280_pressure;Samples;Min_cycle;Max_cycle;Signal;HPM_P1;HPM_P2
2022/03/07 00:00:43;;;;;;;10.80;9.70;;;1.90;99.90;;;;;;4993571;28;20186;-71
2022/03/07 00:03:09;;;;;;;12.77;9.57;;;1.90;99.90;;;;;;4991884;28;20173;-72
2022/03/07 00:05:34;;;;;;;9.80;8.40;;;1.80;99.90;;;;;;4994243;28;20426;-71
2022/03/07 00:08:00;;;;;;;13.40;9.67;;;1.80;99.90;;;;;;4992637;28;20672;-71
2022/03/07 00:10:25;;;;;;;11.17;9.30;;;1.80;99.90;;;;;;4992233;28;20192;-70
2022/03/07 00:12:51;;;;;;;13.83;9.33;;;1.80;99.90;;;;;;4991458;28;20195;-71
2022/03/07 00:15:17;;;;;;;11.93;8.40;;;1.80;99.90;;;;;;4992546;28;20271;-72
2022/03/07 00:17:42;;;;;;;9.93;8.77;;;1.80;99.90;;;;;;4992319;28;20181;-71
2022/03/07 00:20:09;;;;;;;15.00;9.90;;;1.80;99.90;;;;;;4993555;28;20902;-71
2022/03/07 00:22:34;;;;;;;13.07;9.00;;;1.70;99.90;;;;;;4991880;28;20665;-72
2022/03/07 00:25:00;;;;;;;14.17;8.37;;;1.70;99.90;;;;;;4975798;28;20444;-71
2022/03/07 00:27:25;;;;;;;11.80;8.70;;;1.70;99.90;;;;;;4991678;28;20180;-71
2022/03/07 00:29:51;;;;;;;11.90;8.80;;;1.60;99.90;;;;;;4992155;28;20185;-70
2022/03/07 00:32:16;;;;;;;13.10;8.50;;;1.60;99.90;;;;;;4992075;28;20298;-71
2022/03/07 00:34:42;;;;;;;9.00;8.10;;;1.50;99.90;;;;;;4992689;28;20590;-71
2022/03/07 00:37:07;;;;;;;9.93;8.50;;;1.60;99.90;;;;;;4991711;28;20174;-71
2022/03/07 00:39:33;;;;;;;9.40;7.70;;;1.50;99.90;;;;;;4992002;28;20213;-71
2022/03/07 00:41:59;;;;;;;10.63;8.47;;;1.50;99.90;;;;;;4991960;28;20201;-72
2022/03/07 00:44:24;;;;;;;10.20;8.30;;;1.50;99.90;;;;;;4990870;28;20179;-70
2022/03/07 00:46:50;;;;;;;8.37;7.10;;;1.60;99.90;;;;;;4992224;28;20262;-71
2022/03/07 00:49:15;;;;;;;10.13;8.33;;;1.50;99.90;;;;;;4991186;28;20187;-71
2022/03/07 00:51:41;;;;;;;10.33;8.57;;;1.50;99.90;;;;;;4991716;28;20199;-71
2022/03/07 00:54:07;;;;;;;8.67;7.67;;;1.40;99.90;;;;;;4991101;28;20668;-71
2022/03/07 00:56:32;;;;;;;11.13;7.03;;;1.40;99.90;;;;;;4991387;28;20191;-71
2022/03/07 00:58:58;;;;;;;13.47;8.47;;;1.40;99.90;;;;;;4991853;28;20214;-71
2022/03/07 01:01:23;;;;;;;9.33;8.33;;;1.40;99.90;;;;;;4992421;28;20249;-72
2022/03/07 01:03:50;;;;;;;12.33;7.37;;;1.40;99.90;;;;;;4990998;28;20579;-72
2022/03/07 01:06:16;;;;;;;8.93;7.80;;;1.40;99.90;;;;;;4991251;28;20561;-72
2022/03/07 01:08:41;;;;;;;8.17;6.87;;;1.40;99.90;;;;;;4992995;28;20844;-72
2022/03/07 01:11:07;;;;;;;10.80;7.60;;;1.40;99.90;;;;;;4991205;28;20476;-72
2022/03/07 01:13:33;;;;;;;8.13;7.23;;;1.30;99.90;;;;;;4990309;28;20565;-71
2022/03/07 01:15:58;;;;;;;8.87;7.33;;;1.30;99.90;;;;;;4992859;28;20672;-71
2022/03/07 01:18:24;;;;;;;13.27;8.20;;;1.30;99.90;;;;;;4990903;28;20184;-70
2022/03/07 01:20:49;;;;;;;9.13;7.03;;;1.30;99.90;;;;;;4991110;28;20643;-71
2022/03/07 01:23:15;;;;;;;12.23;7.67;;;1.20;99.90;;;;;;4991203;28;20207;-71
2022/03/07 01:25:40;;;;;;;10.10;7.13;;;1.20;99.90;;;;;;4975188;28;20176;-71
2022/03/07 01:28:06;;;;;;;11.90;6.57;;;1.20;99.90;;;;;;4991035;28;20180;-72
2022/03/07 01:30:32;;;;;;;11.17;7.53;;;1.10;99.90;;;;;;4992421;28;20558;-72
2022/03/07 01:32:57;;;;;;;11.10;7.60;;;1.10;99.90;;;;;;4990221;28;20221;-71
2022/03/07 01:35:23;;;;;;;9.63;8.33;;;1.00;99.90;;;;;;4991724;28;20179;-71
2022/03/07 01:37:49;;;;;;;10.50;8.30;;;1.00;99.90;;;;;;4991019;28;20282;-71
2022/03/07 01:40:14;;;;;;;9.10;7.07;;;1.00;99.90;;;;;;4991006;28;20210;-71
2022/03/07 01:42:40;;;;;;;7.90;6.73;;;1.00;99.90;;;;;;4992341;28;20199;-72
2022/03/07 01:45:14;;;;;;;8.40;6.97;;;1.00;99.90;;;;;;4990315;28;20618;-72
2022/03/07 01:47:40;;;;;;;9.10;7.13;;;0.90;99.90;;;;;;4989861;28;20182;-72
2022/03/07 01:50:08;;;;;;;10.43;7.13;;;0.90;99.90;;;;;;4990599;28;20424;-70
2022/03/07 01:52:37;;;;;;;8.17;7.03;;;0.90;99.90;;;;;;4991757;28;20681;-72
2022/03/07 01:55:04;;;;;;;9.40;6.80;;;0.90;99.90;;;;;;4991424;28;20764;-72
2022/03/07 01:57:30;;;;;;;8.40;7.27;;;0.80;99.90;;;;;;4973947;28;20816;-71
2022/03/07 01:59:57;;;;;;;10.13;7.77;;;0.80;99.90;;;;;;4974289;28;20468;-71
2022/03/07 03:33:00;;;;;;;11.20;8.10;;;-0.60;99.90;;;;;;5021497;23;20479;-74
2022/03/07 03:35:26;;;;;;;13.07;8.93;;;-0.60;99.90;;;;;;4992091;28;20845;-74
2022/03/07 03:37:51;;;;;;;12.90;8.50;;;-0.70;99.90;;;;;;5001348;28;20381;-71
2022/03/07 03:40:17;;;;;;;14.80;8.30;;;-0.70;99.90;;;;;;5000756;28;20290;-74
2022/03/07 03:42:43;;;;;;;10.70;8.57;;;-0.70;99.90;;;;;;4981700;28;20290;-71
2022/03/07 03:45:10;;;;;;;11.20;8.40;;;-0.80;99.90;;;;;;4990020;28;20230;-72
2022/03/07 03:47:39;;;;;;;12.23;8.40;;;-0.70;99.90;;;;;;4990825;28;20410;-73
2022/03/07 03:50:07;;;;;;;13.53;8.27;;;-0.80;99.90;;;;;;4990660;28;20934;-72
2022/03/07 03:52:34;;;;;;;10.37;8.57;;;-0.80;99.90;;;;;;4989631;28;20921;-73
2022/03/07 03:55:01;;;;;;;12.57;9.33;;;-0.80;99.90;;;;;;4989891;28;20407;-73
2022/03/07 03:57:27;;;;;;;11.57;8.50;;;-0.80;99.90;;;;;;4990679;28;20869;-73
2022/03/07 03:59:52;;;;;;;9.20;7.73;;;-0.80;99.90;;;;;;4989895;28;20469;-72
2022/03/07 04:02:18;;;;;;;19.10;9.30;;;-0.90;99.90;;;;;;4989327;28;20198;-73
2022/03/07 04:04:43;;;;;;;14.67;8.47;;;-0.90;99.90;;;;;;4989630;28;20174;-73
2022/03/07 04:07:09;;;;;;;15.97;9.47;;;-0.90;99.90;;;;;;4990405;28;20216;-73
2022/03/07 04:09:34;;;;;;;14.93;8.63;;;-0.90;99.90;;;;;;4990303;28;20260;-74
2022/03/07 04:12:00;;;;;;;13.23;9.20;;;-0.90;99.90;;;;;;4994065;28;20231;-74
2022/03/07 04:14:26;;;;;;;13.53;9.50;;;-0.90;99.90;;;;;;4992393;28;20295;-73
2022/03/07 04:16:51;;;;;;;14.93;9.67;;;-1.00;99.90;;;;;;4993977;28;20445;-72
2022/03/07 04:19:17;;;;;;;15.27;8.47;;;-1.00;99.90;;;;;;4993715;28;20634;-74
2022/03/07 04:21:43;;;;;;;17.37;11.27;;;-1.00;99.90;;;;;;4993581;28;20671;-74
2022/03/07 04:24:10;;;;;;;14.40;9.60;;;-1.00;99.90;;;;;;4992968;28;20658;-72
2022/03/07 04:26:36;;;;;;;16.00;9.80;;;-1.10;99.90;;;;;;4993983;28;20451;-73
2022/03/07 04:29:07;;;;;;;13.70;8.73;;;-1.10;99.90;;;;;;4993505;28;20422;-73
2022/03/07 04:31:36;;;;;;;15.00;8.50;;;-1.00;99.90;;;;;;4993056;28;20821;-72
2022/03/07 04:34:03;;;;;;;13.30;8.83;;;-1.00;99.90;;;;;;4992848;28;20470;-74
2022/03/07 04:36:28;;;;;;;15.40;9.13;;;-1.00;99.90;;;;;;4993771;28;20386;-73
2022/03/07 04:38:54;;;;;;;15.37;10.00;;;-1.10;99.90;;;;;;4993405;28;20796;-72
2022/03/07 04:41:20;;;;;;;14.73;9.90;;;-1.10;99.90;;;;;;4993097;28;20209;-72
2022/03/07 04:43:45;;;;;;;13.57;9.50;;;-1.10;99.90;;;;;;4992592;28;20175;-73
2022/03/07 04:46:11;;;;;;;16.00;9.23;;;-1.10;99.90;;;;;;4992661;28;20174;-72
2022/03/07 04:48:37;;;;;;;17.80;10.90;;;-1.00;99.90;;;;;;4993316;28;20184;-73
2022/03/07 04:51:03;;;;;;;15.13;9.57;;;-1.00;99.90;;;;;;4993057;28;20199;-73
2022/03/07 04:53:29;;;;;;;12.10;9.57;;;-1.00;99.90;;;;;;4992636;28;21048;-73
2022/03/07 04:55:55;;;;;;;14.20;9.83;;;-0.90;99.90;;;;;;4993174;28;20817;-73
2022/03/07 04:58:21;;;;;;;12.27;9.30;;;-0.90;99.90;;;;;;4992409;28;20790;-73
2022/03/07 05:00:46;;;;;;;12.87;9.47;;;-0.90;99.90;;;;;;4992955;28;20393;-73
2022/03/07 05:03:12;;;;;;;15.07;9.83;;;-0.90;99.90;;;;;;4992106;28;20417;-72
2022/03/07 05:05:37;;;;;;;12.60;9.60;;;-1.00;99.90;;;;;;4993218;28;20186;-73
2022/03/07 05:08:04;;;;;;;13.63;9.03;;;-0.90;99.90;;;;;;4993185;28;20752;-73
2022/03/07 05:10:30;;;;;;;16.37;9.87;;;-0.90;99.90;;;;;;4992690;28;20251;-73
2022/03/07 05:12:55;;;;;;;14.83;10.63;;;-0.90;99.90;;;;;;4992438;28;20438;-72
2022/03/07 05:15:21;;;;;;;15.30;10.17;;;-0.90;99.90;;;;;;4992563;28;20424;-73
2022/03/07 05:17:51;;;;;;;15.30;9.80;;;-0.80;99.90;;;;;;4992989;28;20182;-73
2022/03/07 05:20:17;;;;;;;16.60;9.67;;;-0.80;99.90;;;;;;4992498;28;20271;-73
2022/03/07 05:22:44;;;;;;;15.00;9.60;;;-0.90;99.90;;;;;;4991093;28;20444;-71
2022/03/07 05:25:11;;;;;;;13.77;9.97;;;-0.80;99.90;;;;;;4992241;28;20682;-73
2022/03/07 05:27:37;;;;;;;14.43;9.67;;;-0.80;99.90;;;;;;4992595;28;20425;-71
2022/03/07 05:30:04;;;;;;;16.30;10.47;;;-0.80;99.90;;;;;;4992549;28;20932;-71
2022/03/07 05:32:30;;;;;;;13.37;9.20;;;-0.80;99.90;;;;;;4991933;28;20215;-72
2022/03/07 05:34:55;;;;;;;14.13;9.77;;;-0.80;99.90;;;;;;4991881;28;20496;-71
2022/03/07 05:37:21;;;;;;;12.03;8.30;;;-0.80;99.90;;;;;;4992366;28;20185;-71
2022/03/07 05:39:47;;;;;;;15.43;9.60;;;-0.80;99.90;;;;;;4992328;28;20242;-72
2022/03/07 05:42:12;;;;;;;13.70;9.37;;;-0.80;99.90;;;;;;4992048;28;20198;-71
2022/03/07 05:44:38;;;;;;;15.80;8.80;;;-0.80;99.90;;;;;;4990902;28;20413;-70
2022/03/07 05:47:03;;;;;;;12.20;9.40;;;-0.80;99.90;;;;;;4992032;28;20182;-75
2022/03/07 05:49:29;;;;;;;15.30;10.00;;;-0.70;99.90;;;;;;4991928;28;20266;-75
2022/03/07 05:51:55;;;;;;;13.10;9.10;;;-0.70;99.90;;;;;;4991464;28;20202;-75
2022/03/07 05:54:20;;;;;;;13.57;8.43;;;-0.60;99.90;;;;;;4991315;28;20648;-75
2022/03/07 05:56:46;;;;;;;12.33;8.50;;;-0.60;99.90;;;;;;4992178;28;20738;-75
2022/03/07 05:59:11;;;;;;;12.57;8.80;;;-0.60;99.90;;;;;;4991386;28;20228;-76
2022/03/07 06:01:37;;;;;;;14.70;8.77;;;-0.60;99.90;;;;;;4987990;28;20668;-75
2022/03/07 06:04:03;;;;;;;14.50;8.00;;;-0.60;99.90;;;;;;5003311;28;20176;-76
2022/03/07 06:06:28;;;;;;;15.57;10.43;;;-0.60;99.90;;;;;;4990351;28;20198;-76
2022/03/07 06:08:54;;;;;;;15.47;9.13;;;-0.60;99.90;;;;;;4995239;28;20190;-76
2022/03/07 06:11:19;;;;;;;12.80;8.67;;;-0.60;99.90;;;;;;4998898;28;20213;-76
2022/03/07 06:13:46;;;;;;;10.50;7.60;;;-0.50;99.90;;;;;;4991729;28;20241;-76
2022/03/07 06:16:12;;;;;;;17.90;8.50;;;-0.50;99.90;;;;;;4995485;28;20190;-75
2022/03/07 06:18:38;;;;;;;12.07;8.13;;;-0.40;99.90;;;;;;4999021;28;20424;-76
2022/03/07 06:21:05;;;;;;;13.20;8.50;;;-0.20;99.90;;;;;;4999238;28;20532;-76
2022/03/07 06:23:31;;;;;;;12.60;8.60;;;0.10;99.90;;;;;;5000168;28;20196;-76
2022/03/07 06:25:56;;;;;;;15.83;7.90;;;0.40;99.90;;;;;;5001457;28;20454;-76
2022/03/07 06:28:22;;;;;;;9.60;8.10;;;0.70;99.90;;;;;;4991325;28;20393;-75
2022/03/07 06:30:48;;;;;;;8.53;7.37;;;0.90;99.90;;;;;;4992727;28;20186;-76
2022/03/07 06:33:15;;;;;;;11.60;8.33;;;0.70;99.90;;;;;;4994078;28;20187;-74
2022/03/07 06:35:40;;;;;;;13.23;8.33;;;0.70;99.90;;;;;;5002502;28;20499;-76
2022/03/07 06:38:06;;;;;;;12.70;8.80;;;0.40;99.90;;;;;;5010898;28;20384;-76
2022/03/07 06:40:32;;;;;;;16.60;9.43;;;0.50;99.90;;;;;;4993610;28;20243;-75
2022/03/07 06:42:57;;;;;;;9.13;7.43;;;0.50;99.90;;;;;;4993147;28;20207;-76
2022/03/07 06:45:23;;;;;;;9.47;7.30;;;0.60;99.90;;;;;;5002013;28;20261;-76
2022/03/07 06:47:49;;;;;;;11.20;8.60;;;0.70;99.90;;;;;;5010555;28;20660;-76
2022/03/07 06:50:16;;;;;;;18.10;8.10;;;0.80;99.90;;;;;;5009973;28;20424;-75
2022/03/07 06:52:42;;;;;;;11.40;8.10;;;1.30;99.90;;;;;;5008566;28;20793;-76
2022/03/07 06:55:08;;;;;;;11.00;7.37;;;2.50;99.90;;;;;;5009271;28;20396;-76
2022/03/07 06:57:33;;;;;;;10.50;7.50;;;3.80;99.90;;;;;;5009288;28;20420;-75
2022/03/07 06:59:59;;;;;;;9.03;7.40;;;4.90;99.90;;;;;;5010038;28;20468;-76
2022/03/07 07:02:24;;;;;;;8.87;7.80;;;5.80;99.90;;;;;;5010504;28;20250;-77
2022/03/07 07:04:50;;;;;;;9.80;8.67;;;6.50;99.90;;;;;;5009106;28;20181;-77
2022/03/07 07:07:16;;;;;;;8.70;7.80;;;7.10;99.90;;;;;;5009420;28;20267;-76
2022/03/07 07:09:41;;;;;;;9.10;8.27;;;7.60;99.90;;;;;;5010316;28;20185;-77
2022/03/07 07:12:08;;;;;;;10.60;8.97;;;7.80;99.90;;;;;;5010244;28;20555;-77
2022/03/07 07:14:34;;;;;;;8.33;6.97;;;7.90;99.90;;;;;;5009025;28;20182;-76
2022/03/07 07:17:00;;;;;;;10.70;7.67;;;8.10;99.90;;;;;;5010574;28;20405;-75
2022/03/07 07:19:25;;;;;;;13.13;9.73;;;8.20;99.90;;;;;;5010392;28;20538;-75
2022/03/07 07:21:51;;;;;;;9.03;7.40;;;8.10;99.90;;;;;;5010394;28;20445;-74
2022/03/07 07:24:17;;;;;;;11.27;8.37;;;8.30;99.90;;;;;;5008925;28;20721;-75
2022/03/07 07:26:42;;;;;;;8.20;7.23;;;7.80;99.90;;;;;;5010471;28;20167;-76
2022/03/07 07:29:08;;;;;;;9.87;6.90;;;8.30;99.90;;;;;;5010138;28;20181;-75
2022/03/07 07:31:33;;;;;;;9.70;8.70;;;8.00;99.90;;;;;;5009577;28;20224;-76
2022/03/07 07:33:59;;;;;;;8.37;7.43;;;8.60;99.90;;;;;;5009544;28;20616;-75
2022/03/07 07:36:24;;;;;;;7.90;7.10;;;8.40;99.60;;;;;;5010258;28;20553;-75
2022/03/07 07:38:50;;;;;;;7.93;7.10;;;8.80;99.10;;;;;;5009728;28;20218;-75
2022/03/07 07:41:15;;;;;;;10.60;8.00;;;8.40;98.90;;;;;;5009667;28;20538;-74
2022/03/07 07:43:41;;;;;;;8.80;7.90;;;8.30;98.50;;;;;;5009438;28;20176;-76
2022/03/07 07:46:07;;;;;;;16.27;10.80;;;8.50;99.30;;;;;;5012633;28;20174;-76
2022/03/07 07:48:32;;;;;;;10.57;8.63;;;8.40;99.10;;;;;;5013723;28;20173;-74
2022/03/07 07:50:58;;;;;;;11.67;7.53;;;8.00;99.40;;;;;;5013712;28;20197;-75
2022/03/07 07:53:23;;;;;;;11.93;8.40;;;8.10;99.60;;;;;;5012808;28;20175;-75
2022/03/07 07:55:49;;;;;;;7.57;6.87;;;7.50;99.60;;;;;;5013198;28;20204;-75
2022/03/07 07:58:14;;;;;;;11.13;8.70;;;7.30;99.90;;;;;;5013431;28;20194;-74
2022/03/07 08:00:40;;;;;;;9.60;7.27;;;7.20;99.90;;;;;;5012793;28;20206;-75
2022/03/07 08:03:05;;;;;;;9.60;7.70;;;6.70;99.90;;;;;;5012525;28;20177;-74
2022/03/07 08:05:31;;;;;;;8.80;7.67;;;6.20;99.90;;;;;;5012162;28;20263;-74
2022/03/07 08:07:56;;;;;;;14.10;8.43;;;6.30;99.90;;;;;;5012593;28;20605;-76
2022/03/07 08:10:23;;;;;;;12.50;8.50;;;6.40;99.90;;;;;;5012797;28;20184;-75
2022/03/07 08:12:48;;;;;;;11.07;8.40;;;6.60;99.90;;;;;;4979273;28;20211;-74
2022/03/07 08:15:14;;;;;;;9.40;7.50;;;6.60;99.90;;;;;;4980388;28;20415;-75
2022/03/07 08:17:46;;;;;;;10.90;8.67;;;6.20;99.90;;;;;;4980518;28;20235;-75
2022/03/07 08:20:13;;;;;;;17.70;9.17;;;6.10;99.90;;;;;;4981289;28;20214;-75
2022/03/07 08:22:38;;;;;;;12.40;8.47;;;6.60;99.90;;;;;;4980329;28;21085;-74
2022/03/07 08:25:04;;;;;;;12.10;8.60;;;6.50;99.90;;;;;;4980758;28;20462;-75
2022/03/07 08:27:30;;;;;;;11.37;9.13;;;6.20;99.90;;;;;;4981852;28;20187;-75
2022/03/07 08:29:56;;;;;;;12.37;9.50;;;5.60;99.90;;;;;;4980772;28;20442;-74
2022/03/07 08:32:21;;;;;;;18.47;8.53;;;5.30;99.90;;;;;;4978765;28;20222;-74
2022/03/07 08:34:47;;;;;;;12.07;8.40;;;4.90;99.90;;;;;;4980683;28;20191;-74
2022/03/07 08:37:12;;;;;;;13.67;9.20;;;4.80;99.90;;;;;;4981170;28;20193;-74
2022/03/07 08:39:38;;;;;;;12.97;9.10;;;5.00;99.90;;;;;;4981440;28;20579;-74
2022/03/07 08:42:03;;;;;;;11.30;8.73;;;4.90;99.90;;;;;;4979952;28;20202;-75
2022/03/07 08:44:29;;;;;;;14.73;9.90;;;4.70;99.90;;;;;;4980057;28;20184;-75
2022/03/07 08:46:54;;;;;;;12.10;8.73;;;4.30;99.90;;;;;;4981339;28;20714;-73
2022/03/07 08:49:20;;;;;;;13.87;9.97;;;3.60;99.90;;;;;;4980995;28;20218;-74
2022/03/07 08:51:46;;;;;;;15.50;11.80;;;3.70;99.90;;;;;;4979830;28;20246;-75
2022/03/07 08:54:14;;;;;;;13.87;9.57;;;4.10;99.90;;;;;;4979559;28;20223;-74
2022/03/07 08:56:39;;;;;;;14.40;9.33;;;4.50;99.90;;;;;;4979060;28;20425;-75
2022/03/07 08:59:05;;;;;;;13.23;8.77;;;4.70;99.90;;;;;;4980996;28;20454;-75
2022/03/07 09:01:31;;;;;;;14.50;9.53;;;4.80;99.90;;;;;;4986645;28;20211;-75
2022/03/07 09:03:57;;;;;;;11.47;9.20;;;5.30;99.90;;;;;;4990676;28;20649;-75
2022/03/07 09:06:22;;;;;;;13.97;9.87;;;5.20;99.90;;;;;;4991076;28;20232;-76
2022/03/07 09:08:48;;;;;;;12.27;8.80;;;5.20;99.90;;;;;;4992642;28;20627;-75
2022/03/07 09:11:13;;;;;;;13.53;9.20;;;5.20;99.90;;;;;;4992757;28;20197;-75
2022/03/07 09:13:39;;;;;;;11.83;9.17;;;5.00;99.90;;;;;;4992947;28;20183;-75
2022/03/07 09:16:04;;;;;;;12.73;9.70;;;4.90;99.90;;;;;;4993818;28;20176;-76
2022/03/07 09:18:30;;;;;;;11.27;9.43;;;4.80;99.90;;;;;;4992903;28;20189;-75
2022/03/07 09:20:57;;;;;;;13.70;9.30;;;4.70;99.90;;;;;;4991580;28;20553;-75
2022/03/07 09:23:23;;;;;;;11.03;9.40;;;4.70;99.90;;;;;;4991708;28;20185;-76
2022/03/07 09:25:49;;;;;;;11.70;9.23;;;4.50;99.90;;;;;;4992086;28;20424;-76
2022/03/07 09:28:14;;;;;;;12.10;9.80;;;4.60;99.90;;;;;;4992480;28;20751;-75
2022/03/07 09:30:40;;;;;;;16.97;10.40;;;5.20;99.90;;;;;;4992402;28;20554;-75
2022/03/07 09:33:06;;;;;;;12.20;9.90;;;6.00;99.90;;;;;;4991908;28;20186;-75
2022/03/07 09:35:33;;;;;;;12.33;9.90;;;6.30;99.90;;;;;;4992094;28;20325;-75
2022/03/07 09:37:59;;;;;;;14.13;10.50;;;6.10;99.90;;;;;;4991908;28;20252;-75
2022/03/07 09:40:25;;;;;;;14.03;10.00;;;6.10;99.90;;;;;;4991884;28;20468;-75
2022/03/07 09:42:52;;;;;;;13.17;10.07;;;6.20;99.90;;;;;;4991623;28;20481;-75
2022/03/07 09:45:18;;;;;;;13.73;10.97;;;6.10;99.50;;;;;;4992029;28;21012;-75
2022/03/07 09:47:45;;;;;;;12.40;9.63;;;6.00;98.90;;;;;;4992088;28;20437;-75
2022/03/07 09:50:11;;;;;;;15.70;10.27;;;5.80;99.80;;;;;;4991841;28;21052;-75
2022/03/07 09:52:37;;;;;;;21.70;10.00;;;5.80;99.90;;;;;;4991406;28;20449;-75
2022/03/07 09:55:04;;;;;;;12.80;9.97;;;5.70;99.90;;;;;;4991217;28;20425;-75
2022/03/07 09:57:30;;;;;;;15.43;10.73;;;5.30;99.90;;;;;;4991903;28;20406;-75
2022/03/07 09:59:56;;;;;;;14.77;10.00;;;4.80;99.90;;;;;;4991579;28;20467;-75
2022/03/07 10:02:25;;;;;;;16.17;10.50;;;4.80;99.90;;;;;;4991545;28;20877;-75
2022/03/07 10:04:51;;;;;;;12.23;9.50;;;4.40;99.90;;;;;;4990984;28;21001;-76
2022/03/07 10:07:17;;;;;;;13.57;9.40;;;4.60;99.90;;;;;;4991375;28;20418;-75
2022/03/07 10:09:42;;;;;;;14.60;10.77;;;4.80;99.90;;;;;;4991796;28;20412;-75
2022/03/07 10:12:08;;;;;;;13.23;9.80;;;4.90;99.90;;;;;;4991531;28;20436;-75
2022/03/07 10:14:46;;;;;;;15.43;9.47;;;4.70;99.90;;;;;;4990710;28;20786;-75
2022/03/07 10:17:19;;;;;;;15.90;10.80;;;4.60;99.90;;;;;;4990839;28;20420;-75
2022/03/07 10:19:46;;;;;;;15.33;9.93;;;4.20;99.90;;;;;;4991330;28;20468;-75
2022/03/07 10:22:22;;;;;;;12.80;9.73;;;4.00;99.90;;;;;;4991892;28;20862;-75
2022/03/07 10:25:00;;;;;;;23.97;10.13;;;3.80;99.90;;;;;;4990679;28;20875;-75
2022/03/07 10:27:28;;;;;;;13.03;10.13;;;3.70;99.90;;;;;;4991318;28;20435;-76
2022/03/07 10:29:53;;;;;;;27.80;9.80;;;3.60;99.90;;;;;;4991048;28;20425;-75
2022/03/07 10:32:20;;;;;;;14.43;9.80;;;3.70;99.90;;;;;;4991024;28;20446;-75
2022/03/07 10:34:45;;;;;;;15.10;10.80;;;3.80;99.90;;;;;;4990623;28;20255;-75
2022/03/07 10:37:12;;;;;;;13.60;10.07;;;3.80;99.90;;;;;;4991242;28;20953;-75
2022/03/07 10:39:44;;;;;;;14.47;11.03;;;3.80;99.90;;;;;;4991210;28;20207;-75
2022/03/07 10:42:18;;;;;;;13.67;9.90;;;3.90;99.90;;;;;;4990699;28;20444;-75
2022/03/07 10:44:44;;;;;;;12.23;9.40;;;4.00;99.90;;;;;;4990516;28;20489;-75
2022/03/07 10:47:15;;;;;;;11.90;9.10;;;4.10;99.90;;;;;;4991383;28;20955;-76
2022/03/07 10:49:54;;;;;;;12.37;9.97;;;4.20;99.90;;;;;;4991241;28;20420;-75
2022/03/07 10:52:21;;;;;;;14.90;10.10;;;4.50;99.90;;;;;;4990831;28;20783;-75
2022/03/07 10:54:49;;;;;;;13.80;9.87;;;4.60;99.90;;;;;;4990083;28;20741;-75
2022/03/07 10:57:17;;;;;;;13.07;9.93;;;4.30;99.90;;;;;;4990540;28;20416;-74
2022/03/07 10:59:43;;;;;;;13.33;10.50;;;4.20;99.90;;;;;;4990791;28;20523;-75
2022/03/07 11:02:10;;;;;;;14.23;9.20;;;4.20;99.90;;;;;;4990520;28;20953;-75
2022/03/07 11:04:38;;;;;;;12.17;8.93;;;4.30;99.90;;;;;;4989886;28;20184;-74
2022/03/07 11:07:04;;;;;;;13.50;9.30;;;4.60;99.90;;;;;;4991123;28;20514;-75
2022/03/07 11:09:30;;;;;;;14.27;10.57;;;4.70;99.90;;;;;;4990974;28;20419;-75
2022/03/07 11:11:56;;;;;;;15.23;10.80;;;4.80;99.90;;;;;;4990919;28;20443;-75
2022/03/07 11:14:24;;;;;;;12.93;9.87;;;4.70;99.90;;;;;;4989408;28;20183;-75
2022/03/07 11:16:51;;;;;;;11.10;9.43;;;4.60;99.90;;;;;;4990776;28;20768;-75
2022/03/07 11:19:21;;;;;;;13.03;9.97;;;4.50;99.90;;;;;;4990875;28;20462;-75
2022/03/07 11:21:51;;;;;;;14.90;9.63;;;4.50;99.90;;;;;;4994337;28;20443;-76
2022/03/07 11:24:21;;;;;;;12.17;9.27;;;4.50;99.90;;;;;;4993869;28;20413;-75
2022/03/07 11:26:47;;;;;;;16.97;10.90;;;4.40;99.90;;;;;;4995226;28;20498;-75
2022/03/07 11:29:14;;;;;;;12.80;10.07;;;4.30;99.90;;;;;;4994358;28;20426;-75
2022/03/07 11:31:40;;;;;;;15.47;10.13;;;4.00;99.90;;;;;;4994686;28;20523;-75
2022/03/07 11:34:08;;;;;;;15.17;9.80;;;3.90;99.90;;;;;;4993202;28;20393;-76
2022/03/07 11:36:37;;;;;;;15.50;9.87;;;4.00;99.90;;;;;;4995049;28;21001;-74
2022/03/07 11:39:04;;;;;;;13.83;10.00;;;4.10;99.90;;;;;;4994290;28;20988;-75
2022/03/07 11:41:36;;;;;;;20.63;9.83;;;4.20;99.90;;;;;;4996291;28;20814;-76
2022/03/07 11:44:07;;;;;;;13.30;9.77;;;4.40;99.90;;;;;;4993768;28;20412;-75
2022/03/07 11:46:41;;;;;;;14.67;10.43;;;4.70;99.90;;;;;;4994515;28;20409;-75
2022/03/07 11:49:09;;;;;;;14.10;9.00;;;4.70;99.20;;;;;;4994020;28;20881;-75
2022/03/07 11:51:38;;;;;;;12.77;9.93;;;4.80;99.50;;;;;;4994346;28;20437;-75
2022/03/07 11:54:06;;;;;;;14.93;10.13;;;5.00;99.20;;;;;;4994325;28;20413;-76
2022/03/07 11:56:37;;;;;;;13.53;10.17;;;5.20;98.40;;;;;;4995063;28;20760;-75
2022/03/07 11:59:08;;;;;;;10.70;9.13;;;5.30;98.20;;;;;;4995277;28;20453;-75
2022/03/07 12:01:34;;;;;;;18.10;9.80;;;5.80;97.60;;;;;;4994319;28;20580;-76
2022/03/07 12:04:10;;;;;;;10.93;9.83;;;6.20;98.50;;;;;;4994242;28;20536;-75
2022/03/07 12:06:53;;;;;;;12.93;10.33;;;6.40;96.00;;;;;;4995406;28;20416;-75
2022/03/07 12:09:33;;;;;;;15.40;10.90;;;6.20;95.90;;;;;;4994899;28;20519;-75
2022/03/07 12:12:06;;;;;;;12.90;10.17;;;6.00;95.70;;;;;;4994108;28;20452;-75
2022/03/07 12:14:34;;;;;;;13.50;10.13;;;5.80;96.50;;;;;;4993039;28;20830;-76
2022/03/07 12:17:01;;;;;;;38.90;10.07;;;5.70;96.40;;;;;;4994114;28;20428;-76
2022/03/07 12:19:28;;;;;;;16.33;11.40;;;5.60;96.00;;;;;;4993269;28;20475;-75
2022/03/07 12:21:54;;;;;;;12.57;9.63;;;5.70;97.30;;;;;;4993732;28;20890;-75
2022/03/07 12:24:22;;;;;;;16.10;10.53;;;6.10;96.80;;;;;;4993597;28;20442;-75
2022/03/07 12:26:50;;;;;;;14.00;9.27;;;6.10;95.30;;;;;;4992534;28;20204;-76
2022/03/07 12:29:17;;;;;;;14.90;11.50;;;6.20;95.80;;;;;;4991674;28;20433;-75
2022/03/07 12:31:49;;;;;;;13.77;10.77;;;6.40;95.00;;;;;;4993726;28;20971;-76
2022/03/07 12:34:44;;;;;;;15.40;10.97;;;6.20;95.10;;;;;;4992614;28;20438;-76
2022/03/07 12:37:17;;;;;;;18.73;10.10;;;6.40;95.10;;;;;;4989604;28;20436;-75
2022/03/07 12:39:53;;;;;;;13.53;9.97;;;6.30;95.20;;;;;;4993045;28;20468;-75
2022/03/07 12:42:21;;;;;;;14.90;10.10;;;6.30;95.00;;;;;;4993546;28;20583;-75
2022/03/07 12:44:47;;;;;;;14.67;10.20;;;6.30;94.90;;;;;;4992520;28;20474;-75
2022/03/07 12:47:13;;;;;;;12.53;9.90;;;6.50;94.80;;;;;;4993244;28;20980;-75
2022/03/07 12:49:40;;;;;;;13.00;9.97;;;6.40;94.10;;;;;;4992757;28;20262;-76
2022/03/07 12:52:08;;;;;;;11.77;9.53;;;6.40;93.80;;;;;;4993200;28;20458;-76
2022/03/07 12:54:38;;;;;;;25.03;9.37;;;6.20;93.30;;;;;;4992439;28;20786;-76
2022/03/07 12:57:05;;;;;;;14.07;11.30;;;6.30;94.30;;;;;;4993233;28;20918;-76
2022/03/07 12:59:35;;;;;;;16.07;10.47;;;6.30;94.00;;;;;;4991820;28;20825;-75
2022/03/07 13:02:03;;;;;;;15.73;10.70;;;6.10;93.00;;;;;;4992931;28;20467;-75
2022/03/07 13:04:31;;;;;;;11.63;10.40;;;6.00;93.30;;;;;;4992111;28;20415;-75
2022/03/07 13:06:57;;;;;;;13.83;9.93;;;5.90;93.80;;;;;;4993131;28;20431;-75
2022/03/07 13:09:28;;;;;;;12.43;9.10;;;5.70;93.20;;;;;;4992892;28;20428;-75
2022/03/07 13:11:54;;;;;;;15.40;10.33;;;5.70;93.90;;;;;;4992216;28;20469;-75
2022/03/07 13:14:28;;;;;;;13.60;10.27;;;5.70;93.60;;;;;;4996877;28;20449;-75
2022/03/07 13:17:02;;;;;;;13.13;10.20;;;5.50;93.10;;;;;;4994789;28;20436;-76
2022/03/07 13:19:28;;;;;;;12.40;9.50;;;5.30;93.60;;;;;;4992716;28;20902;-75
2022/03/07 13:21:54;;;;;;;12.47;10.70;;;5.30;94.10;;;;;;4992478;28;20541;-75
2022/03/07 13:24:25;;;;;;;13.50;10.03;;;5.40;94.00;;;;;;4991257;28;20266;-75
2022/03/07 13:27:02;;;;;;;12.63;9.97;;;5.20;93.50;;;;;;4990848;28;20422;-75
2022/03/07 13:29:28;;;;;;;15.33;11.60;;;5.20;93.60;;;;;;4991502;28;20732;-75
2022/03/07 13:31:59;;;;;;;12.70;10.20;;;5.30;93.90;;;;;;4991042;28;20492;-75
2022/03/07 13:34:25;;;;;;;17.13;10.47;;;5.30;93.60;;;;;;4990410;28;20509;-75
2022/03/07 13:36:55;;;;;;;10.93;9.27;;;5.30;93.80;;;;;;4990941;28;20420;-75
2022/03/07 13:39:28;;;;;;;15.53;10.57;;;5.40;94.10;;;;;;4991180;28;20454;-75
2022/03/07 13:42:02;;;;;;;15.20;9.43;;;5.40;93.30;;;;;;4992267;28;20940;-75
2022/03/07 13:44:30;;;;;;;19.70;10.40;;;5.30;93.40;;;;;;4990989;28;20429;-75
2022/03/07 13:47:02;;;;;;;13.00;10.23;;;5.30;93.80;;;;;;4992309;28;20463;-75
2022/03/07 13:49:45;;;;;;;14.50;10.97;;;5.30;93.40;;;;;;4991744;28;20476;-76
2022/03/07 13:52:12;;;;;;;14.03;11.10;;;5.20;92.80;;;;;;4991866;28;20865;-75
2022/03/07 13:54:39;;;;;;;13.20;9.63;;;5.00;93.40;;;;;;4991365;28;20417;-74
2022/03/07 13:57:05;;;;;;;17.33;11.53;;;5.10;93.60;;;;;;4992244;28;20473;-75
2022/03/07 13:59:30;;;;;;;14.30;11.13;;;5.10;93.40;;;;;;4991944;28;20470;-75
2022/03/07 14:01:56;;;;;;;14.37;10.90;;;5.10;93.60;;;;;;4991703;28;20876;-75
2022/03/07 14:04:23;;;;;;;13.97;9.60;;;5.20;94.00;;;;;;4991187;28;20211;-75
2022/03/07 14:06:48;;;;;;;18.87;11.50;;;5.30;93.60;;;;;;4991925;28;20179;-77
2022/03/07 14:09:15;;;;;;;18.80;10.67;;;5.20;93.50;;;;;;4991542;28;20990;-75
2022/03/07 14:11:42;;;;;;;15.27;10.67;;;5.20;93.30;;;;;;4991211;28;20206;-75